sensor_id;sensor_type;location;lat;lon;timestamp;P1;durP1;ratioP1;P2;durP2;ratioP2
1106;SDS011;540;49.448;8.612;2023-03-17T00:01:19;5.18;;;2.25;;
1106;SDS011;540;49.448;8.612;2023-03-17T00:03:47;3.70;;;2.30;;
1106;SDS011;540;49.448;8.612;2023-03-17T00:06:17;4.68;;;2.05;;
1106;SDS011;540;49.448;8.612;2023-03-17T00:08:49;4.72;;;2.33;;
1106;SDS011;540;49.448;8.612;2023-03-17T00:11:18;5.13;;;2.42;;
1106;SDS011;540;49.448;8.612;2023-03-17T00:13:46;4.00;;;2.38;;
1106;SDS011;540;49.448;8.612;2023-03-17T00:16:15;2.75;;;2.35;;
1106;SDS011;540;49.448;8.612;2023-03-17T00:18:45;5.88;;;2.95;;
1106;SDS011;540;49.448;8.612;2023-03-17T00:21:15;3.40;;;2.33;;
1106;SDS011;540;49.448;8.612;2023-03-17T00:23:49;5.50;;;2.35;;
1106;SDS011;540;49.448;8.612;2023-03-17T00:26:19;4.80;;;2.30;;
1106;SDS011;540;49.448;8.612;2023-03-17T00:28:46;4.35;;;2.88;;
1106;SDS011;540;49.448;8.612;2023-03-17T00:31:16;6.00;;;2.60;;
1106;SDS011;540;49.448;8.612;2023-03-17T00:33:47;6.78;;;2.95;;
1106;SDS011;540;49.448;8.612;2023-03-17T00:36:18;5.32;;;3.03;;
1106;SDS011;540;49.448;8.612;2023-03-17T00:38:47;6.05;;;2.65;;
1106;SDS011;540;49.448;8.612;2023-03-17T00:41:15;7.57;;;2.80;;
1106;SDS011;540;49.448;8.612;2023-03-17T00:43:44;5.20;;;2.33;;
1106;SDS011;540;49.448;8.612;2023-03-17T00:46:13;8.30;;;3.35;;
1106;SDS011;540;49.448;8.612;2023-03-17T00:48:42;6.00;;;3.97;;
1106;SDS011;540;49.448;8.612;2023-03-17T00:51:11;6.78;;;3.70;;
1106;SDS011;540;49.448;8.612;2023-03-17T00:53:40;7.30;;;3.25;;
1106;SDS011;540;49.448;8.612;2023-03-17T00:56:10;7.50;;;3.03;;
1106;SDS011;540;49.448;8.612;2023-03-17T00:58:40;5.30;;;3.05;;
1106;SDS011;540;49.448;8.612;2023-03-17T01:01:10;5.57;;;3.08;;
1106;SDS011;540;49.448;8.612;2023-03-17T01:03:38;5.85;;;2.78;;
1106;SDS011;540;49.448;8.612;2023-03-17T01:06:07;4.32;;;2.55;;
1106;SDS011;540;49.448;8.612;2023-03-17T01:08:37;5.68;;;2.63;;
1106;SDS011;540;49.448;8.612;2023-03-17T01:11:06;4.57;;;2.30;;
1106;SDS011;540;49.448;8.612;2023-03-17T01:13:39;6.05;;;2.78;;
1106;SDS011;540;49.448;8.612;2023-03-17T01:16:08;5.70;;;3.25;;
1106;SDS011;540;49.448;8.612;2023-03-17T01:18:38;4.53;;;2.65;;
1106;SDS011;540;49.448;8.612;2023-03-17T01:21:06;7.38;;;3.10;;
1106;SDS011;540;49.448;8.612;2023-03-17T01:23:35;8.63;;;3.30;;
1106;SDS011;540;49.448;8.612;2023-03-17T01:26:04;7.28;;;3.88;;
1106;SDS011;540;49.448;8.612;2023-03-17T01:28:32;10.98;;;4.00;;
1106;SDS011;540;49.448;8.612;2023-03-17T01:31:00;5.60;;;2.88;;
1106;SDS011;540;49.448;8.612;2023-03-17T01:33:29;5.18;;;2.67;;
1106;SDS011;540;49.448;8.612;2023-03-17T01:35:57;4.68;;;2.55;;
1106;SDS011;540;49.448;8.612;2023-03-17T01:38:25;4.22;;;2.30;;
1106;SDS011;540;49.448;8.612;2023-03-17T01:40:53;5.82;;;2.47;;
1106;SDS011;540;49.448;8.612;2023-03-17T01:43:22;4.45;;;2.25;;
1106;SDS011;540;49.448;8.612;2023-03-17T01:48:56;3.83;;;2.08;;
1106;SDS011;540;49.448;8.612;2023-03-17T01:51:30;4.00;;;2.20;;
1106;SDS011;540;49.448;8.612;2023-03-17T01:54:02;3.67;;;1.85;;
1106;SDS011;540;49.448;8.612;2023-03-17T01:56:34;4.63;;;2.28;;
1106;SDS011;540;49.448;8.612;2023-03-17T01:59:04;3.58;;;2.13;;
1106;SDS011;540;49.448;8.612;2023-03-17T02:01:36;5.78;;;1.95;;
1106;SDS011;540;49.448;8.612;2023-03-17T02:04:08;4.60;;;2.30;;
1106;SDS011;540;49.448;8.612;2023-03-17T02:06:38;4.22;;;1.98;;
1106;SDS011;540;49.448;8.612;2023-03-17T02:09:22;4.22;;;1.95;;
1106;SDS011;540;49.448;8.612;2023-03-17T02:11:50;5.25;;;1.88;;
1106;SDS011;540;49.448;8.612;2023-03-17T02:14:18;7.38;;;2.45;;
1106;SDS011;540;49.448;8.612;2023-03-17T02:16:45;6.20;;;2.25;;
1106;SDS011;540;49.448;8.612;2023-03-17T02:19:15;3.03;;;2.00;;
1106;SDS011;540;49.448;8.612;2023-03-17T02:21:45;5.18;;;1.98;;
1106;SDS011;540;49.448;8.612;2023-03-17T02:24:18;4.03;;;2.22;;
1106;SDS011;540;49.448;8.612;2023-03-17T02:29:20;6.13;;;2.50;;
1106;SDS011;540;49.448;8.612;2023-03-17T02:31:49;6.82;;;2.95;;
1106;SDS011;540;49.448;8.612;2023-03-17T02:34:17;3.88;;;2.33;;
1106;SDS011;540;49.448;8.612;2023-03-17T02:36:46;5.25;;;2.58;;
1106;SDS011;540;49.448;8.612;2023-03-17T02:39:14;4.60;;;2.45;;
1106;SDS011;540;49.448;8.612;2023-03-17T02:41:42;4.65;;;2.28;;
1106;SDS011;540;49.448;8.612;2023-03-17T02:44:09;6.97;;;2.50;;
1106;SDS011;540;49.448;8.612;2023-03-17T02:46:37;4.40;;;2.30;;
1106;SDS011;540;49.448;8.612;2023-03-17T02:49:05;12.57;;;5.55;;
1106;SDS011;540;49.448;8.612;2023-03-17T02:51:33;8.32;;;3.80;;
1106;SDS011;540;49.448;8.612;2023-03-17T02:54:03;7.97;;;3.53;;
1106;SDS011;540;49.448;8.612;2023-03-17T02:56:31;6.38;;;3.33;;
1106;SDS011;540;49.448;8.612;2023-03-17T02:58:59;6.75;;;3.30;;
1106;SDS011;540;49.448;8.612;2023-03-17T03:01:26;5.40;;;2.50;;
1106;SDS011;540;49.448;8.612;2023-03-17T03:03:55;6.35;;;3.10;;
1106;SDS011;540;49.448;8.612;2023-03-17T03:06:24;5.95;;;3.10;;
1106;SDS011;540;49.448;8.612;2023-03-17T03:08:51;4.85;;;2.65;;
1106;SDS011;540;49.448;8.612;2023-03-17T03:11:21;5.85;;;2.70;;
1106;SDS011;540;49.448;8.612;2023-03-17T03:13:48;7.57;;;3.65;;
1106;SDS011;540;49.448;8.612;2023-03-17T03:16:17;6.68;;;3.17;;
1106;SDS011;540;49.448;8.612;2023-03-17T03:18:44;7.88;;;3.45;;
1106;SDS011;540;49.448;8.612;2023-03-17T03:21:12;6.80;;;3.15;;
1106;SDS011;540;49.448;8.612;2023-03-17T03:23:40;5.13;;;3.15;;
1106;SDS011;540;49.448;8.612;2023-03-17T03:26:08;5.65;;;2.50;;
1106;SDS011;540;49.448;8.612;2023-03-17T03:28:37;5.25;;;2.67;;
1106;SDS011;540;49.448;8.612;2023-03-17T03:31:05;4.65;;;3.03;;
1106;SDS011;540;49.448;8.612;2023-03-17T03:33:33;5.03;;;2.97;;
1106;SDS011;540;49.448;8.612;2023-03-17T03:36:01;4.57;;;2.70;;
1106;SDS011;540;49.448;8.612;2023-03-17T03:38:30;3.10;;;2.20;;
1106;SDS011;540;49.448;8.612;2023-03-17T03:40:57;4.72;;;2.95;;
1106;SDS011;540;49.448;8.612;2023-03-17T03:43:25;5.88;;;2.53;;
1106;SDS011;540;49.448;8.612;2023-03-17T03:45:54;6.30;;;3.25;;
1106;SDS011;540;49.448;8.612;2023-03-17T03:48:22;14.50;;;4.40;;
1106;SDS011;540;49.448;8.612;2023-03-17T03:50:54;7.43;;;3.03;;
1106;SDS011;540;49.448;8.612;2023-03-17T03:53:22;3.63;;;2.33;;
1106;SDS011;540;49.448;8.612;2023-03-17T03:55:50;8.45;;;4.07;;
1106;SDS011;540;49.448;8.612;2023-03-17T03:58:19;6.75;;;3.40;;
1106;SDS011;540;49.448;8.612;2023-03-17T04:00:46;6.45;;;3.53;;
1106;SDS011;540;49.448;8.612;2023-03-17T04:03:16;9.80;;;4.47;;
1106;SDS011;540;49.448;8.612;2023-03-17T04:05:44;5.00;;;2.95;;
1106;SDS011;540;49.448;8.612;2023-03-17T04:08:11;5.43;;;2.78;;
1106;SDS011;540;49.448;8.612;2023-03-17T04:10:39;6.25;;;2.70;;
1106;SDS011;540;49.448;8.612;2023-03-17T04:13:08;4.90;;;2.42;;
1106;SDS011;540;49.448;8.612;2023-03-17T04:15:35;5.57;;;3.17;;
1106;SDS011;540;49.448;8.612;2023-03-17T04:18:03;6.13;;;3.60;;
1106;SDS011;540;49.448;8.612;2023-03-17T04:20:32;6.93;;;3.33;;
1106;SDS011;540;49.448;8.612;2023-03-17T04:23:00;6.93;;;3.60;;
1106;SDS011;540;49.448;8.612;2023-03-17T04:25:28;5.22;;;2.95;;
1106;SDS011;540;49.448;8.612;2023-03-17T04:27:56;9.18;;;3.75;;
1106;SDS011;540;49.448;8.612;2023-03-17T04:30:24;16.38;;;4.38;;
1106;SDS011;540;49.448;8.612;2023-03-17T04:32:52;6.20;;;3.47;;
1106;SDS011;540;49.448;8.612;2023-03-17T04:35:20;6.90;;;3.38;;
1106;SDS011;540;49.448;8.612;2023-03-17T04:37:49;8.73;;;4.45;;
1106;SDS011;540;49.448;8.612;2023-03-17T04:40:18;10.23;;;4.60;;
1106;SDS011;540;49.448;8.612;2023-03-17T04:42:46;9.02;;;4.78;;
1106;SDS011;540;49.448;8.612;2023-03-17T04:45:14;8.20;;;4.38;;
1106;SDS011;540;49.448;8.612;2023-03-17T04:47:42;9.23;;;4.35;;
1106;SDS011;540;49.448;8.612;2023-03-17T04:50:11;7.93;;;4.45;;
1106;SDS011;540;49.448;8.612;2023-03-17T04:52:39;10.20;;;4.50;;
1106;SDS011;540;49.448;8.612;2023-03-17T04:55:09;9.80;;;5.00;;
1106;SDS011;540;49.448;8.612;2023-03-17T04:57:38;8.02;;;4.82;;
1106;SDS011;540;49.448;8.612;2023-03-17T05:00:06;11.88;;;4.93;;
1106;SDS011;540;49.448;8.612;2023-03-17T05:02:35;7.97;;;4.78;;
1106;SDS011;540;49.448;8.612;2023-03-17T05:05:04;10.38;;;5.00;;
1106;SDS011;540;49.448;8.612;2023-03-17T05:07:32;7.97;;;5.65;;
1106;SDS011;540;49.448;8.612;2023-03-17T05:09:59;11.32;;;5.07;;
1106;SDS011;540;49.448;8.612;2023-03-17T05:12:29;8.98;;;5.50;;
1106;SDS011;540;49.448;8.612;2023-03-17T05:14:57;9.35;;;5.15;;
1106;SDS011;540;49.448;8.612;2023-03-17T05:17:25;9.80;;;4.53;;
1106;SDS011;540;49.448;8.612;2023-03-17T05:19:52;11.23;;;4.90;;
1106;SDS011;540;49.448;8.612;2023-03-17T05:22:20;9.50;;;4.82;;
1106;SDS011;540;49.448;8.612;2023-03-17T05:24:48;12.00;;;5.75;;
1106;SDS011;540;49.448;8.612;2023-03-17T05:27:16;10.65;;;5.72;;
1106;SDS011;540;49.448;8.612;2023-03-17T05:29:45;11.27;;;5.40;;
1106;SDS011;540;49.448;8.612;2023-03-17T05:32:13;11.93;;;5.82;;
1106;SDS011;540;49.448;8.612;2023-03-17T05:34:41;9.93;;;5.90;;
1106;SDS011;540;49.448;8.612;2023-03-17T05:37:10;10.98;;;6.03;;
1106;SDS011;540;49.448;8.612;2023-03-17T05:39:38;14.88;;;6.25;;
1106;SDS011;540;49.448;8.612;2023-03-17T05:42:06;12.15;;;5.60;;
1106;SDS011;540;49.448;8.612;2023-03-17T05:44:34;12.23;;;6.03;;
1106;SDS011;540;49.448;8.612;2023-03-17T05:47:03;11.20;;;6.13;;
1106;SDS011;540;49.448;8.612;2023-03-17T05:49:34;11.00;;;6.47;;
1106;SDS011;540;49.448;8.612;2023-03-17T05:52:02;10.80;;;6.10;;
1106;SDS011;540;49.448;8.612;2023-03-17T05:54:30;14.85;;;6.72;;
1106;SDS011;540;49.448;8.612;2023-03-17T05:56:57;11.10;;;6.43;;
1106;SDS011;540;49.448;8.612;2023-03-17T05:59:26;10.65;;;5.75;;
1106;SDS011;540;49.448;8.612;2023-03-17T06:01:54;10.40;;;5.80;;
1106;SDS011;540;49.448;8.612;2023-03-17T06:04:23;11.02;;;5.30;;
1106;SDS011;540;49.448;8.612;2023-03-17T06:06:51;11.27;;;6.50;;
1106;SDS011;540;49.448;8.612;2023-03-17T06:09:19;13.38;;;7.20;;
1106;SDS011;540;49.448;8.612;2023-03-17T06:11:47;10.18;;;5.43;;
1106;SDS011;540;49.448;8.612;2023-03-17T06:14:15;9.32;;;6.15;;
1106;SDS011;540;49.448;8.612;2023-03-17T06:16:43;11.65;;;6.40;;
1106;SDS011;540;49.448;8.612;2023-03-17T06:19:11;10.80;;;6.32;;
1106;SDS011;540;49.448;8.612;2023-03-17T06:21:40;12.80;;;6.07;;
1106;SDS011;540;49.448;8.612;2023-03-17T06:24:08;9.65;;;5.50;;
1106;SDS011;540;49.448;8.612;2023-03-17T06:26:36;8.27;;;5.45;;
1106;SDS011;540;49.448;8.612;2023-03-17T06:29:04;8.93;;;5.28;;
1106;SDS011;540;49.448;8.612;2023-03-17T06:31:34;11.45;;;5.72;;
1106;SDS011;540;49.448;8.612;2023-03-17T06:34:02;12.88;;;6.38;;
1106;SDS011;540;49.448;8.612;2023-03-17T06:36:30;10.80;;;5.85;;
1106;SDS011;540;49.448;8.612;2023-03-17T06:39:00;16.80;;;6.35;;
1106;SDS011;540;49.448;8.612;2023-03-17T06:41:28;10.02;;;5.57;;
1106;SDS011;540;49.448;8.612;2023-03-17T06:43:56;15.70;;;6.57;;
1106;SDS011;540;49.448;8.612;2023-03-17T06:46:24;12.27;;;6.20;;
1106;SDS011;540;49.448;8.612;2023-03-17T06:48:52;25.30;;;7.20;;
1106;SDS011;540;49.448;8.612;2023-03-17T06:51:20;10.38;;;6.18;;
1106;SDS011;540;49.448;8.612;2023-03-17T06:53:47;11.70;;;6.25;;
1106;SDS011;540;49.448;8.612;2023-03-17T06:56:17;9.27;;;6.35;;
1106;SDS011;540;49.448;8.612;2023-03-17T06:58:55;14.57;;;6.32;;
1106;SDS011;540;49.448;8.612;2023-03-17T07:01:23;11.30;;;6.00;;
1106;SDS011;540;49.448;8.612;2023-03-17T07:03:52;12.50;;;6.15;;
1106;SDS011;540;49.448;8.612;2023-03-17T07:06:20;13.48;;;6.80;;
1106;SDS011;540;49.448;8.612;2023-03-17T07:08:49;24.80;;;13.45;;
1106;SDS011;540;49.448;8.612;2023-03-17T07:11:18;10.85;;;6.18;;
1106;SDS011;540;49.448;8.612;2023-03-17T07:13:48;11.40;;;5.60;;
1106;SDS011;540;49.448;8.612;2023-03-17T07:16:17;8.40;;;5.53;;
1106;SDS011;540;49.448;8.612;2023-03-17T07:18:46;13.60;;;5.35;;
1106;SDS011;540;49.448;8.612;2023-03-17T07:21:14;10.38;;;5.05;;
1106;SDS011;540;49.448;8.612;2023-03-17T07:23:42;7.93;;;6.00;;
1106;SDS011;540;49.448;8.612;2023-03-17T07:26:10;8.95;;;5.20;;
1106;SDS011;540;49.448;8.612;2023-03-17T07:28:39;6.63;;;4.28;;
1106;SDS011;540;49.448;8.612;2023-03-17T07:31:07;11.98;;;7.68;;
1106;SDS011;540;49.448;8.612;2023-03-17T07:33:39;9.48;;;5.20;;
1106;SDS011;540;49.448;8.612;2023-03-17T07:36:07;11.63;;;8.23;;
1106;SDS011;540;49.448;8.612;2023-03-17T07:38:35;8.05;;;5.50;;
1106;SDS011;540;49.448;8.612;2023-03-17T07:41:03;10.88;;;5.35;;
1106;SDS011;540;49.448;8.612;2023-03-17T07:43:34;15.95;;;10.23;;
1106;SDS011;540;49.448;8.612;2023-03-17T07:46:05;8.90;;;4.95;;
1106;SDS011;540;49.448;8.612;2023-03-17T07:48:33;9.82;;;5.55;;
1106;SDS011;540;49.448;8.612;2023-03-17T07:51:05;9.88;;;5.50;;
1106;SDS011;540;49.448;8.612;2023-03-17T07:53:33;8.30;;;5.72;;
1106;SDS011;540;49.448;8.612;2023-03-17T07:56:01;9.27;;;6.10;;
1106;SDS011;540;49.448;8.612;2023-03-17T07:58:29;12.02;;;6.05;;
1106;SDS011;540;49.448;8.612;2023-03-17T08:00:57;7.63;;;5.47;;
1106;SDS011;540;49.448;8.612;2023-03-17T08:03:26;9.13;;;5.38;;
1106;SDS011;540;49.448;8.612;2023-03-17T08:05:55;7.93;;;4.97;;
1106;SDS011;540;49.448;8.612;2023-03-17T08:08:24;11.65;;;5.72;;
1106;SDS011;540;49.448;8.612;2023-03-17T08:10:57;8.35;;;5.10;;
1106;SDS011;540;49.448;8.612;2023-03-17T08:13:28;7.07;;;5.15;;
1106;SDS011;540;49.448;8.612;2023-03-17T08:15:56;8.18;;;5.00;;
1106;SDS011;540;49.448;8.612;2023-03-17T08:18:24;7.45;;;5.10;;
1106;SDS011;540;49.448;8.612;2023-03-17T08:20:53;8.40;;;5.53;;
1106;SDS011;540;49.448;8.612;2023-03-17T08:23:22;10.23;;;5.80;;
1106;SDS011;540;49.448;8.612;2023-03-17T08:25:54;13.05;;;5.75;;
1106;SDS011;540;49.448;8.612;2023-03-17T08:28:23;13.02;;;5.88;;
1106;SDS011;540;49.448;8.612;2023-03-17T08:30:52;9.45;;;5.75;;
1106;SDS011;540;49.448;8.612;2023-03-17T08:33:20;8.95;;;5.72;;
1106;SDS011;540;49.448;8.612;2023-03-17T08:35:48;10.57;;;5.85;;
1106;SDS011;540;49.448;8.612;2023-03-17T08:38:18;8.25;;;5.15;;
1106;SDS011;540;49.448;8.612;2023-03-17T08:40:45;9.60;;;5.32;;
1106;SDS011;540;49.448;8.612;2023-03-17T08:43:15;10.43;;;5.47;;
1106;SDS011;540;49.448;8.612;2023-03-17T08:45:43;6.30;;;4.43;;
1106;SDS011;540;49.448;8.612;2023-03-17T08:48:11;8.75;;;5.80;;
1106;SDS011;540;49.448;8.612;2023-03-17T08:50:39;10.27;;;5.57;;
1106;SDS011;540;49.448;8.612;2023-03-17T08:53:07;11.23;;;6.68;;
1106;SDS011;540;49.448;8.612;2023-03-17T08:55:37;8.30;;;5.32;;
1106;SDS011;540;49.448;8.612;2023-03-17T08:58:05;14.45;;;5.28;;
1106;SDS011;540;49.448;8.612;2023-03-17T09:00:33;7.70;;;5.00;;
1106;SDS011;540;49.448;8.612;2023-03-17T09:03:02;5.53;;;4.45;;
1106;SDS011;540;49.448;8.612;2023-03-17T09:05:33;8.93;;;5.53;;
1106;SDS011;540;49.448;8.612;2023-03-17T09:08:04;6.75;;;4.93;;
1106;SDS011;540;49.448;8.612;2023-03-17T09:10:34;7.22;;;4.85;;
1106;SDS011;540;49.448;8.612;2023-03-17T09:13:05;6.35;;;4.63;;
1106;SDS011;540;49.448;8.612;2023-03-17T09:15:35;9.70;;;5.13;;
1106;SDS011;540;49.448;8.612;2023-03-17T09:18:05;7.55;;;4.30;;
1106;SDS011;540;49.448;8.612;2023-03-17T09:20:35;8.05;;;4.53;;
1106;SDS011;540;49.448;8.612;2023-03-17T09:23:06;5.88;;;3.97;;
1106;SDS011;540;49.448;8.612;2023-03-17T09:25:37;6.13;;;3.92;;
1106;SDS011;540;49.448;8.612;2023-03-17T09:28:11;11.70;;;4.97;;
1106;SDS011;540;49.448;8.612;2023-03-17T09:30:41;7.65;;;4.05;;
1106;SDS011;540;49.448;8.612;2023-03-17T09:33:10;6.65;;;4.47;;
1106;SDS011;540;49.448;8.612;2023-03-17T09:35:41;5.95;;;3.75;;
1106;SDS011;540;49.448;8.612;2023-03-17T09:38:11;6.38;;;3.80;;
1106;SDS011;540;49.448;8.612;2023-03-17T09:40:43;6.18;;;3.40;;
1106;SDS011;540;49.448;8.612;2023-03-17T09:43:19;5.63;;;3.20;;
1106;SDS011;540;49.448;8.612;2023-03-17T09:45:56;5.88;;;2.90;;
1106;SDS011;540;49.448;8.612;2023-03-17T09:48:40;6.47;;;2.90;;
1106;SDS011;540;49.448;8.612;2023-03-17T09:51:18;5.10;;;3.13;;
1106;SDS011;540;49.448;8.612;2023-03-17T09:53:48;7.07;;;2.90;;
1106;SDS011;540;49.448;8.612;2023-03-17T09:56:22;5.27;;;3.53;;
1106;SDS011;540;49.448;8.612;2023-03-17T09:58:57;3.72;;;2.78;;
1106;SDS011;540;49.448;8.612;2023-03-17T10:01:30;6.82;;;3.47;;
1106;SDS011;540;49.448;8.612;2023-03-17T10:03:58;5.88;;;2.92;;
1106;SDS011;540;49.448;8.612;2023-03-17T10:06:31;5.15;;;2.70;;
1106;SDS011;540;49.448;8.612;2023-03-17T10:09:11;4.93;;;3.20;;
1106;SDS011;540;49.448;8.612;2023-03-17T10:11:44;4.53;;;2.90;;
1106;SDS011;540;49.448;8.612;2023-03-17T10:14:21;7.80;;;4.15;;
1106;SDS011;540;49.448;8.612;2023-03-17T10:16:57;7.70;;;3.58;;
1106;SDS011;540;49.448;8.612;2023-03-17T10:19:30;5.18;;;3.35;;
1106;SDS011;540;49.448;8.612;2023-03-17T10:22:03;6.28;;;3.67;;
1106;SDS011;540;49.448;8.612;2023-03-17T10:24:35;4.57;;;3.00;;
1106;SDS011;540;49.448;8.612;2023-03-17T10:27:09;5.03;;;3.40;;
1106;SDS011;540;49.448;8.612;2023-03-17T10:29:40;4.95;;;3.70;;
1106;SDS011;540;49.448;8.612;2023-03-17T10:32:08;4.03;;;3.03;;
1106;SDS011;540;49.448;8.612;2023-03-17T10:34:39;5.32;;;3.00;;
1106;SDS011;540;49.448;8.612;2023-03-17T10:37:11;5.10;;;3.10;;
1106;SDS011;540;49.448;8.612;2023-03-17T10:39:40;4.82;;;3.40;;
1106;SDS011;540;49.448;8.612;2023-03-17T10:42:12;5.03;;;3.03;;
1106;SDS011;540;49.448;8.612;2023-03-17T10:44:51;5.55;;;3.30;;
1106;SDS011;540;49.448;8.612;2023-03-17T10:47:22;4.90;;;2.92;;
1106;SDS011;540;49.448;8.612;2023-03-17T10:49:51;5.20;;;3.25;;
1106;SDS011;540;49.448;8.612;2023-03-17T10:52:24;7.88;;;3.03;;
1106;SDS011;540;49.448;8.612;2023-03-17T10:54:53;5.60;;;3.60;;
1106;SDS011;540;49.448;8.612;2023-03-17T10:57:21;6.10;;;3.70;;
1106;SDS011;540;49.448;8.612;2023-03-17T10:59:51;4.97;;;3.30;;
1106;SDS011;540;49.448;8.612;2023-03-17T11:02:23;4.28;;;3.40;;
1106;SDS011;540;49.448;8.612;2023-03-17T11:04:53;6.15;;;3.75;;
1106;SDS011;540;49.448;8.612;2023-03-17T11:07:27;8.73;;;3.53;;
1106;SDS011;540;49.448;8.612;2023-03-17T11:10:00;6.18;;;3.63;;
1106;SDS011;540;49.448;8.612;2023-03-17T11:12:33;7.60;;;3.67;;
1106;SDS011;540;49.448;8.612;2023-03-17T11:15:06;4.50;;;3.03;;
1106;SDS011;540;49.448;8.612;2023-03-17T11:17:38;7.75;;;3.85;;
1106;SDS011;540;49.448;8.612;2023-03-17T11:20:15;6.50;;;3.60;;
1106;SDS011;540;49.448;8.612;2023-03-17T11:22:53;6.57;;;3.20;;
1106;SDS011;540;49.448;8.612;2023-03-17T11:25:28;7.95;;;4.18;;
1106;SDS011;540;49.448;8.612;2023-03-17T11:27:59;7.35;;;3.22;;
1106;SDS011;540;49.448;8.612;2023-03-17T11:30:43;8.10;;;3.45;;
1106;SDS011;540;49.448;8.612;2023-03-17T11:33:22;12.05;;;4.53;;
1106;SDS011;540;49.448;8.612;2023-03-17T11:36:00;7.45;;;3.33;;
1106;SDS011;540;49.448;8.612;2023-03-17T11:38:49;5.10;;;3.42;;
1106;SDS011;540;49.448;8.612;2023-03-17T11:41:34;5.80;;;3.97;;
1106;SDS011;540;49.448;8.612;2023-03-17T11:44:50;5.05;;;3.40;;
1106;SDS011;540;49.448;8.612;2023-03-17T11:47:34;6.28;;;3.90;;
1106;SDS011;540;49.448;8.612;2023-03-17T11:50:15;6.18;;;3.28;;
1106;SDS011;540;49.448;8.612;2023-03-17T11:52:52;4.60;;;3.10;;
1106;SDS011;540;49.448;8.612;2023-03-17T11:55:29;5.05;;;2.83;;
1106;SDS011;540;49.448;8.612;2023-03-17T11:58:10;3.88;;;2.90;;
1106;SDS011;540;49.448;8.612;2023-03-17T12:00:43;4.18;;;2.70;;
1106;SDS011;540;49.448;8.612;2023-03-17T12:03:17;3.92;;;3.42;;
1106;SDS011;540;49.448;8.612;2023-03-17T12:05:52;9.52;;;4.07;;
1106;SDS011;540;49.448;8.612;2023-03-17T12:08:25;13.32;;;8.65;;
1106;SDS011;540;49.448;8.612;2023-03-17T12:10:56;8.18;;;3.80;;
1106;SDS011;540;49.448;8.612;2023-03-17T12:13:28;4.05;;;3.50;;
1106;SDS011;540;49.448;8.612;2023-03-17T12:15:59;8.95;;;3.45;;
1106;SDS011;540;49.448;8.612;2023-03-17T12:18:33;6.00;;;3.58;;
1106;SDS011;540;49.448;8.612;2023-03-17T12:21:05;5.25;;;3.00;;
1106;SDS011;540;49.448;8.612;2023-03-17T12:23:37;4.68;;;2.88;;
1106;SDS011;540;49.448;8.612;2023-03-17T12:26:13;5.90;;;3.35;;
1106;SDS011;540;49.448;8.612;2023-03-17T12:28:45;6.63;;;3.25;;
1106;SDS011;540;49.448;8.612;2023-03-17T12:31:18;5.88;;;3.47;;
1106;SDS011;540;49.448;8.612;2023-03-17T12:33:51;4.20;;;3.00;;
1106;SDS011;540;49.448;8.612;2023-03-17T12:36:25;5.43;;;3.08;;
1106;SDS011;540;49.448;8.612;2023-03-17T12:38:55;5.35;;;3.10;;
1106;SDS011;540;49.448;8.612;2023-03-17T12:41:32;7.55;;;3.00;;
1106;SDS011;540;49.448;8.612;2023-03-17T12:44:11;5.65;;;2.92;;
1106;SDS011;540;49.448;8.612;2023-03-17T12:46:58;6.28;;;3.53;;
1106;SDS011;540;49.448;8.612;2023-03-17T12:49:49;6.00;;;3.42;;
1106;SDS011;540;49.448;8.612;2023-03-17T12:52:38;5.07;;;2.95;;
1106;SDS011;540;49.448;8.612;2023-03-17T12:55:21;6.47;;;3.08;;
1106;SDS011;540;49.448;8.612;2023-03-17T12:57:56;5.43;;;3.08;;
1106;SDS011;540;49.448;8.612;2023-03-17T13:00:27;5.32;;;3.13;;
1106;SDS011;540;49.448;8.612;2023-03-17T13:03:06;6.38;;;3.63;;
1106;SDS011;540;49.448;8.612;2023-03-17T13:05:45;8.52;;;4.43;;
1106;SDS011;540;49.448;8.612;2023-03-17T13:08:22;5.65;;;3.10;;
1106;SDS011;540;49.448;8.612;2023-03-17T13:13:43;5.50;;;3.10;;
1106;SDS011;540;49.448;8.612;2023-03-17T13:19:18;7.35;;;3.40;;
1106;SDS011;540;49.448;8.612;2023-03-17T13:21:50;6.53;;;3.58;;
1106;SDS011;540;49.448;8.612;2023-03-17T13:24:21;6.30;;;3.95;;
1106;SDS011;540;49.448;8.612;2023-03-17T13:27:02;5.10;;;2.95;;
1106;SDS011;540;49.448;8.612;2023-03-17T13:29:39;4.38;;;3.17;;
1106;SDS011;540;49.448;8.612;2023-03-17T13:35:12;7.82;;;3.47;;
1106;SDS011;540;49.448;8.612;2023-03-17T13:37:58;4.75;;;2.53;;
1106;SDS011;540;49.448;8.612;2023-03-17T13:40:40;6.65;;;3.08;;
1106;SDS011;540;49.448;8.612;2023-03-17T13:43:20;6.07;;;2.85;;
1106;SDS011;540;49.448;8.612;2023-03-17T13:46:18;5.32;;;3.10;;
1106;SDS011;540;49.448;8.612;2023-03-17T13:48:51;3.97;;;2.38;;
1106;SDS011;540;49.448;8.612;2023-03-17T13:51:20;3.67;;;2.47;;
1106;SDS011;540;49.448;8.612;2023-03-17T13:53:52;4.95;;;2.60;;
1106;SDS011;540;49.448;8.612;2023-03-17T13:56:23;6.93;;;3.60;;
1106;SDS011;540;49.448;8.612;2023-03-17T13:59:06;6.15;;;2.90;;
1106;SDS011;540;49.448;8.612;2023-03-17T14:01:40;5.50;;;2.22;;
1106;SDS011;540;49.448;8.612;2023-03-17T14:04:16;4.32;;;2.40;;
1106;SDS011;540;49.448;8.612;2023-03-17T14:06:47;5.93;;;2.22;;
1106;SDS011;540;49.448;8.612;2023-03-17T14:09:24;4.47;;;2.38;;
1106;SDS011;540;49.448;8.612;2023-03-17T14:11:59;4.05;;;2.08;;
1106;SDS011;540;49.448;8.612;2023-03-17T14:14:33;4.68;;;2.53;;
1106;SDS011;540;49.448;8.612;2023-03-17T14:17:11;4.88;;;2.35;;
1106;SDS011;540;49.448;8.612;2023-03-17T14:19:50;3.83;;;2.60;;
1106;SDS011;540;49.448;8.612;2023-03-17T14:22:26;4.60;;;2.70;;
1106;SDS011;540;49.448;8.612;2023-03-17T14:24:58;4.68;;;3.03;;
1106;SDS011;540;49.448;8.612;2023-03-17T14:27:28;7.38;;;2.88;;
1106;SDS011;540;49.448;8.612;2023-03-17T14:30:03;3.50;;;2.10;;
1106;SDS011;540;49.448;8.612;2023-03-17T14:32:34;4.88;;;2.78;;
1106;SDS011;540;49.448;8.612;2023-03-17T14:35:01;4.93;;;2.33;;
1106;SDS011;540;49.448;8.612;2023-03-17T14:37:30;5.45;;;2.40;;
1106;SDS011;540;49.448;8.612;2023-03-17T14:39:59;6.18;;;1.95;;
1106;SDS011;540;49.448;8.612;2023-03-17T14:42:27;4.07;;;2.53;;
1106;SDS011;540;49.448;8.612;2023-03-17T14:45:00;5.97;;;2.72;;
1106;SDS011;540;49.448;8.612;2023-03-17T14:47:30;6.47;;;2.08;;
1106;SDS011;540;49.448;8.612;2023-03-17T14:50:05;5.05;;;2.40;;
1106;SDS011;540;49.448;8.612;2023-03-17T14:52:40;5.15;;;2.00;;
1106;SDS011;540;49.448;8.612;2023-03-17T14:55:12;12.73;;;2.45;;
1106;SDS011;540;49.448;8.612;2023-03-17T14:57:46;2.83;;;2.00;;
1106;SDS011;540;49.448;8.612;2023-03-17T15:00:35;5.53;;;2.88;;
1106;SDS011;540;49.448;8.612;2023-03-17T15:03:15;4.82;;;2.17;;
1106;SDS011;540;49.448;8.612;2023-03-17T15:05:45;4.78;;;2.80;;
1106;SDS011;540;49.448;8.612;2023-03-17T15:11:18;4.60;;;2.63;;
1106;SDS011;540;49.448;8.612;2023-03-17T15:13:48;5.60;;;1.92;;
1106;SDS011;540;49.448;8.612;2023-03-17T15:16:20;4.50;;;1.80;;
1106;SDS011;540;49.448;8.612;2023-03-17T15:18:52;6.10;;;2.03;;
1106;SDS011;540;49.448;8.612;2023-03-17T15:21:31;6.47;;;3.13;;
1106;SDS011;540;49.448;8.612;2023-03-17T15:24:04;4.65;;;2.10;;
1106;SDS011;540;49.448;8.612;2023-03-17T15:26:46;3.75;;;1.83;;
1106;SDS011;540;49.448;8.612;2023-03-17T15:29:14;2.38;;;1.83;;
1106;SDS011;540;49.448;8.612;2023-03-17T15:31:42;3.67;;;2.83;;
1106;SDS011;540;49.448;8.612;2023-03-17T15:34:10;4.03;;;2.58;;
1106;SDS011;540;49.448;8.612;2023-03-17T15:36:40;6.40;;;2.08;;
1106;SDS011;540;49.448;8.612;2023-03-17T15:39:12;4.72;;;2.40;;
1106;SDS011;540;49.448;8.612;2023-03-17T15:41:40;7.25;;;2.83;;
1106;SDS011;540;49.448;8.612;2023-03-17T15:44:09;2.70;;;2.08;;
1106;SDS011;540;49.448;8.612;2023-03-17T15:46:37;3.80;;;2.22;;
1106;SDS011;540;49.448;8.612;2023-03-17T15:49:07;4.65;;;2.20;;
1106;SDS011;540;49.448;8.612;2023-03-17T15:51:36;4.75;;;2.65;;
1106;SDS011;540;49.448;8.612;2023-03-17T15:54:04;5.20;;;2.63;;
1106;SDS011;540;49.448;8.612;2023-03-17T15:56:32;4.60;;;2.10;;
1106;SDS011;540;49.448;8.612;2023-03-17T15:59:00;4.57;;;2.63;;
1106;SDS011;540;49.448;8.612;2023-03-17T16:01:29;5.93;;;3.25;;
1106;SDS011;540;49.448;8.612;2023-03-17T16:03:57;6.38;;;2.72;;
1106;SDS011;540;49.448;8.612;2023-03-17T16:06:25;5.07;;;2.50;;
1106;SDS011;540;49.448;8.612;2023-03-17T16:08:53;6.18;;;2.95;;